SLCB/CBB METAR and TAF weather

Enter ICAO airport designator
Station Type Date Time Source
SLCB METAR 2020/09/22 04:00 UTC NOAA

SLCB 220400Z 13008KT 9999 NSC 15/07 Q1025


Station Type Date Time Source
SLCB Decoded METAR 2020/09/22 04:00 UTC NOAA

Cochabamba, Bolivia (SLCB) 17-25S 066-11W 2570M
Sep 22, 2020 - 12:00 AM EDT / 2020.09.22 0400 UTC
Wind: from the SE (130 degrees) at 9 MPH (8 KT):0
Visibility: greater than 7 mile(s):0
Temperature: 59 F (15 C)
Dew Point: 44 F (7 C)
Relative Humidity: 58%
Pressure (altimeter): 30.27 in. Hg (1025 hPa)
ob: SLCB 220400Z 13008KT 9999 NSC 15/07 Q1025
cycle: 4

Station Type Date Time Source
SLCB TAF 2020/09/21 18:03 UTC NOAA

TAF SLCB 211650Z 2118/2218 24008KT 9999 FEW036 TX28/2119Z TN09/2211Z
TEMPO 2123/2201 24015KT FEW040CB
BECMG 2202/2204 00000KT
BECMG 2214/ 2216 24008KT

Example: see airport list